Time;durP1;ratioP1;P1;durP2;ratioP2;P2;SDS_P1;SDS_P2;PMS_P1;PMS_P2;Temp;Humidity;BMP_temperature;BMP_pressure;BME280_temperature;BME280_humidity;BME280_pressure;Samples;Min_cycle;Max_cycle;Signal;HPM_P1;HPM_P2
2022/10/03 00:36:36;;;;;;;40.27;37.47;;;13.30;99.90;;;;;;5421985;22;20489;-73
2022/10/03 00:39:37;;;;;;;39.50;36.93;;;13.30;99.90;;;;;;5027100;28;20449;-74
2022/10/03 00:42:51;;;;;;;39.67;36.63;;;13.40;99.90;;;;;;5014006;28;20484;-73
2022/10/03 00:45:50;;;;;;;39.90;37.23;;;13.40;99.90;;;;;;5027434;28;20471;-74
2022/10/03 00:49:07;;;;;;;40.00;37.23;;;13.40;99.90;;;;;;5027213;28;20957;-74
2022/10/03 00:51:50;;;;;;;41.27;38.37;;;13.40;99.90;;;;;;5027446;28;20441;-74
2022/10/03 00:54:37;;;;;;;40.87;38.17;;;13.50;99.90;;;;;;5027340;28;20453;-73
2022/10/03 00:57:25;;;;;;;41.90;39.10;;;13.40;99.90;;;;;;5027382;28;20499;-74
2022/10/03 01:00:20;;;;;;;40.43;37.40;;;13.40;99.90;;;;;;5027487;28;20810;-74
2022/10/03 01:02:58;;;;;;;41.37;38.40;;;13.50;99.90;;;;;;5029561;28;20455;-74
2022/10/03 01:05:34;;;;;;;41.77;38.93;;;13.60;99.90;;;;;;5031201;28;20819;-74
2022/10/03 01:08:40;;;;;;;41.80;38.60;;;13.60;99.90;;;;;;5031058;28;20456;-75
2022/10/03 01:11:21;;;;;;;41.80;38.47;;;13.70;99.90;;;;;;5031533;28;20451;-75
2022/10/03 01:14:00;;;;;;;39.80;37.07;;;13.80;99.90;;;;;;5031105;28;20447;-75
2022/10/03 01:16:37;;;;;;;40.30;37.63;;;13.70;99.90;;;;;;5031259;28;20448;-75
2022/10/03 01:19:27;;;;;;;42.97;39.63;;;13.80;99.90;;;;;;5031180;28;20444;-75
2022/10/03 01:22:13;;;;;;;41.57;38.27;;;13.70;99.90;;;;;;5031037;28;20980;-76
2022/10/03 01:24:57;;;;;;;41.33;38.30;;;13.60;99.90;;;;;;5031100;28;20568;-75
2022/10/03 01:30:21;;;;;;;39.27;36.50;;;13.50;99.90;;;;;;5030625;28;20455;-75
2022/10/03 01:30:28;;;;;;;39.50;36.90;;;13.50;99.90;;;;;;5031866;28;20519;-75
2022/10/03 01:33:02;;;;;;;38.43;35.83;;;13.40;99.90;;;;;;5031903;28;20510;-75
2022/10/03 01:35:37;;;;;;;39.43;36.73;;;13.40;99.90;;;;;;5031480;28;20477;-76
2022/10/03 01:38:14;;;;;;;40.00;37.30;;;13.30;99.90;;;;;;5031686;28;20445;-76
2022/10/03 01:40:47;;;;;;;40.37;37.47;;;13.40;99.90;;;;;;5031648;28;20900;-75
2022/10/03 01:43:19;;;;;;;39.67;36.90;;;13.40;99.90;;;;;;5031706;28;20449;-75
2022/10/03 01:46:00;;;;;;;39.37;36.67;;;13.30;99.90;;;;;;5031541;28;20845;-75
2022/10/03 01:48:34;;;;;;;41.00;37.70;;;13.30;99.90;;;;;;5031378;28;20445;-75
2022/10/03 01:51:10;;;;;;;39.23;36.53;;;13.40;99.90;;;;;;5031389;28;20946;-74
2022/10/03 01:53:48;;;;;;;40.43;37.37;;;13.40;99.90;;;;;;5031805;28;20510;-75
2022/10/03 01:56:25;;;;;;;38.37;35.77;;;13.50;99.90;;;;;;5031453;28;20456;-74
2022/10/03 01:58:59;;;;;;;40.90;37.97;;;13.50;99.90;;;;;;5031683;28;20814;-74
2022/10/03 02:01:36;;;;;;;41.23;37.93;;;13.70;99.90;;;;;;5031273;28;20499;-74
2022/10/03 02:04:12;;;;;;;41.00;37.80;;;13.70;99.90;;;;;;5031138;28;20452;-74
2022/10/03 02:06:48;;;;;;;40.63;37.73;;;13.80;99.90;;;;;;5031534;28;20832;-74
2022/10/03 02:09:26;;;;;;;39.50;36.33;;;13.80;99.90;;;;;;5031087;28;20475;-74
2022/10/03 02:12:08;;;;;;;38.40;35.70;;;13.80;99.90;;;;;;5031385;28;20452;-74
2022/10/03 02:14:53;;;;;;;40.10;37.30;;;13.80;99.90;;;;;;5030545;28;20453;-75
2022/10/03 02:17:44;;;;;;;40.53;37.70;;;13.80;99.90;;;;;;5031069;28;20449;-76
2022/10/03 02:20:22;;;;;;;38.30;35.53;;;13.80;99.90;;;;;;5030984;28;20460;-75
2022/10/03 02:22:52;;;;;;;40.83;37.93;;;13.80;99.90;;;;;;5031169;28;20441;-76
2022/10/03 02:25:25;;;;;;;39.80;36.97;;;13.90;99.90;;;;;;5030811;28;20440;-75
2022/10/03 02:28:27;;;;;;;40.37;37.47;;;13.90;99.90;;;;;;5031218;28;20441;-75
2022/10/03 02:31:23;;;;;;;39.27;36.50;;;13.90;99.90;;;;;;5031123;28;20844;-75
2022/10/03 02:34:15;;;;;;;40.33;37.40;;;14.00;99.90;;;;;;5030995;28;20461;-75
2022/10/03 02:37:02;;;;;;;40.03;37.17;;;13.90;99.90;;;;;;5030458;28;20535;-76
2022/10/03 02:39:51;;;;;;;38.70;36.00;;;13.90;99.90;;;;;;5030648;28;20963;-75
2022/10/03 02:42:56;;;;;;;38.63;36.03;;;13.90;99.90;;;;;;5030411;28;20834;-75
2022/10/03 02:45:48;;;;;;;41.43;37.73;;;13.90;99.90;;;;;;5030839;28;20455;-76
2022/10/03 02:48:49;;;;;;;39.97;37.13;;;13.80;99.90;;;;;;5030470;28;20468;-76
2022/10/03 02:51:55;;;;;;;39.43;36.53;;;13.70;99.90;;;;;;5030275;28;20702;-76
2022/10/03 02:54:49;;;;;;;41.17;37.87;;;13.70;99.90;;;;;;5030593;28;20448;-76
2022/10/03 02:57:43;;;;;;;39.03;36.13;;;13.80;99.90;;;;;;5030156;28;20441;-75
2022/10/03 03:00:14;;;;;;;39.30;36.43;;;13.80;99.90;;;;;;5030214;28;20452;-74
2022/10/03 03:03:14;;;;;;;39.17;36.57;;;13.70;99.90;;;;;;5030010;28;20491;-75
2022/10/03 03:06:20;;;;;;;39.07;36.43;;;13.80;99.90;;;;;;5029968;28;20453;-75
2022/10/03 03:09:13;;;;;;;38.03;35.40;;;13.80;99.90;;;;;;5009865;28;20463;-74
2022/10/03 03:12:22;;;;;;;39.30;36.60;;;13.80;99.90;;;;;;5030241;28;20927;-75
2022/10/03 03:15:23;;;;;;;40.17;37.17;;;13.70;99.90;;;;;;5029857;28;20540;-76
2022/10/03 03:17:58;;;;;;;39.77;37.07;;;13.60;99.90;;;;;;4987232;28;20502;-76
2022/10/03 03:20:51;;;;;;;39.97;36.43;;;13.60;99.90;;;;;;5029901;28;20452;-75
2022/10/03 03:23:43;;;;;;;39.77;36.87;;;13.60;99.90;;;;;;5029791;28;20464;-76
2022/10/03 03:26:34;;;;;;;38.93;36.23;;;13.60;99.90;;;;;;5026192;28;20452;-76
2022/10/03 03:29:11;;;;;;;39.63;36.60;;;13.70;99.90;;;;;;5029624;28;20910;-76
2022/10/03 03:31:50;;;;;;;38.27;35.67;;;13.60;99.90;;;;;;5029875;28;20441;-75
2022/10/03 03:34:25;;;;;;;37.90;35.20;;;13.60;99.90;;;;;;5029307;28;20472;-76
2022/10/03 03:36:59;;;;;;;38.70;35.90;;;13.60;99.90;;;;;;5029780;28;20484;-75
2022/10/03 03:39:42;;;;;;;39.10;36.40;;;13.60;99.90;;;;;;5029456;28;20449;-76
2022/10/03 03:42:32;;;;;;;40.03;36.63;;;13.60;99.90;;;;;;5029659;28;20491;-74
2022/10/03 03:45:14;;;;;;;39.07;36.37;;;13.60;99.90;;;;;;5029342;28;20467;-75
2022/10/03 03:47:57;;;;;;;39.70;36.80;;;13.50;99.90;;;;;;5029370;28;20459;-74
2022/10/03 03:50:51;;;;;;;40.23;37.20;;;13.50;99.90;;;;;;5029416;28;20444;-75
2022/10/03 03:53:49;;;;;;;40.40;37.23;;;13.50;99.90;;;;;;5029162;28;20515;-75
2022/10/03 03:56:33;;;;;;;39.97;37.17;;;13.50;99.90;;;;;;5029028;28;20876;-75
2022/10/03 03:59:14;;;;;;;39.57;36.63;;;13.50;99.90;;;;;;5029229;28;20452;-74
2022/10/03 04:01:52;;;;;;;38.60;35.90;;;13.50;99.90;;;;;;5029076;28;21009;-74
2022/10/03 04:04:38;;;;;;;41.20;38.17;;;13.40;99.90;;;;;;5029127;28;20456;-76
2022/10/03 04:07:15;;;;;;;39.77;36.17;;;13.40;99.90;;;;;;5029228;28;20456;-75
2022/10/03 04:09:59;;;;;;;42.47;39.17;;;13.30;99.90;;;;;;5029037;28;20456;-74
2022/10/03 04:12:43;;;;;;;42.03;38.50;;;13.20;99.90;;;;;;5028983;28;21013;-76
2022/10/03 04:15:33;;;;;;;39.20;36.20;;;13.30;99.90;;;;;;5028763;28;20469;-75
2022/10/03 04:21:19;;;;;;;39.97;37.27;;;13.20;99.90;;;;;;5028828;28;20427;-75
2022/10/03 04:24:11;;;;;;;40.70;37.67;;;13.20;99.90;;;;;;5028890;28;20448;-75
2022/10/03 04:26:50;;;;;;;41.90;38.43;;;13.30;99.90;;;;;;5029143;28;20453;-74
2022/10/03 04:29:42;;;;;;;41.50;38.50;;;13.30;99.90;;;;;;5028796;28;20506;-75
2022/10/03 04:32:22;;;;;;;40.57;37.33;;;13.30;99.90;;;;;;5025865;28;20446;-75
2022/10/03 04:35:04;;;;;;;39.63;36.40;;;13.30;99.90;;;;;;5028690;28;20468;-74
2022/10/03 04:37:39;;;;;;;42.03;38.40;;;13.30;99.90;;;;;;5030660;28;20473;-76
2022/10/03 04:40:17;;;;;;;40.97;37.67;;;13.30;99.90;;;;;;5032864;28;20456;-75
2022/10/03 04:42:52;;;;;;;41.00;37.60;;;13.40;99.90;;;;;;5032642;28;20480;-75
2022/10/03 04:45:54;;;;;;;39.43;36.27;;;13.50;99.90;;;;;;5032586;28;20444;-76
2022/10/03 04:48:32;;;;;;;38.73;36.00;;;13.60;99.90;;;;;;5032930;28;20454;-76
2022/10/03 04:51:07;;;;;;;37.97;35.03;;;13.60;99.90;;;;;;5032387;28;20506;-74
2022/10/03 04:53:44;;;;;;;35.37;33.03;;;13.60;99.90;;;;;;5031196;28;20444;-74
2022/10/03 04:56:43;;;;;;;37.53;34.93;;;13.70;99.90;;;;;;5031295;28;20553;-74
2022/10/03 04:59:26;;;;;;;39.40;36.40;;;13.70;99.90;;;;;;5024596;28;20482;-74
2022/10/03 05:01:56;;;;;;;37.60;34.97;;;13.70;99.90;;;;;;5032723;28;20491;-74
2022/10/03 05:04:32;;;;;;;37.10;34.60;;;13.70;99.90;;;;;;5032525;28;20452;-74
2022/10/03 05:07:07;;;;;;;37.97;35.07;;;13.80;99.90;;;;;;5032315;28;20969;-74
2022/10/03 05:09:41;;;;;;;37.87;34.67;;;13.90;99.90;;;;;;5032339;28;20448;-74
2022/10/03 05:12:17;;;;;;;36.93;34.33;;;13.80;99.90;;;;;;5032697;28;20524;-75
2022/10/03 05:15:04;;;;;;;36.57;34.27;;;13.70;99.90;;;;;;5032370;28;20757;-75
2022/10/03 05:17:41;;;;;;;38.57;35.20;;;13.50;99.90;;;;;;5032095;28;20449;-75
2022/10/03 05:20:24;;;;;;;39.43;36.23;;;13.50;99.90;;;;;;5032535;28;20520;-74
2022/10/03 05:22:59;;;;;;;36.40;33.43;;;13.40;99.90;;;;;;5032317;28;21032;-74
2022/10/03 05:25:38;;;;;;;36.83;33.70;;;13.40;99.90;;;;;;5032137;28;20456;-74
2022/10/03 05:28:14;;;;;;;38.00;34.93;;;13.50;99.90;;;;;;5032198;28;20451;-73
2022/10/03 05:30:52;;;;;;;35.50;32.40;;;13.50;99.90;;;;;;5031967;28;20821;-76
2022/10/03 05:33:26;;;;;;;36.07;33.30;;;13.50;99.90;;;;;;5032070;28;20461;-75
2022/10/03 05:36:06;;;;;;;34.40;31.60;;;13.50;99.90;;;;;;5031883;28;20492;-73
2022/10/03 05:39:20;;;;;;;34.03;31.40;;;13.50;99.90;;;;;;5031675;28;20452;-74
2022/10/03 05:41:53;;;;;;;36.13;33.27;;;13.60;99.90;;;;;;5031617;28;20484;-74
2022/10/03 05:44:29;;;;;;;34.63;32.10;;;13.60;99.90;;;;;;5031978;28;20444;-74
2022/10/03 05:47:02;;;;;;;36.50;33.43;;;13.50;99.90;;;;;;5031698;28;20970;-74
2022/10/03 05:49:53;;;;;;;36.57;32.63;;;13.50;99.90;;;;;;5030289;28;20449;-74
2022/10/03 05:52:38;;;;;;;35.50;32.70;;;13.50;99.90;;;;;;5029797;28;20449;-75
2022/10/03 05:55:21;;;;;;;36.73;33.43;;;13.40;99.90;;;;;;5031738;28;20445;-74
2022/10/03 05:58:34;;;;;;;35.60;32.50;;;13.40;99.90;;;;;;5031448;28;20449;-75
2022/10/03 06:01:37;;;;;;;34.23;31.17;;;13.30;99.90;;;;;;4995708;28;20460;-75
2022/10/03 06:04:41;;;;;;;35.77;32.33;;;13.30;99.90;;;;;;5031437;28;20456;-74
2022/10/03 06:07:20;;;;;;;34.63;30.93;;;13.30;99.90;;;;;;5029876;28;20551;-75
2022/10/03 06:10:24;;;;;;;33.80;31.10;;;13.40;99.90;;;;;;5031186;28;20522;-75
2022/10/03 06:12:59;;;;;;;33.67;30.77;;;13.40;99.90;;;;;;5031440;28;20445;-75
2022/10/03 06:15:41;;;;;;;34.87;31.90;;;13.50;99.90;;;;;;5031238;28;20833;-74
2022/10/03 06:18:24;;;;;;;34.17;31.17;;;13.50;99.90;;;;;;5031459;28;20445;-75
2022/10/03 06:21:27;;;;;;;35.97;32.87;;;13.40;99.90;;;;;;5031331;28;20441;-75
2022/10/03 06:24:31;;;;;;;34.30;31.60;;;13.50;99.90;;;;;;5031147;28;20444;-74
2022/10/03 06:27:34;;;;;;;31.97;29.57;;;13.60;99.90;;;;;;5032108;28;20451;-77
2022/10/03 06:30:22;;;;;;;33.47;30.43;;;13.60;99.90;;;;;;5029121;28;20650;-77
2022/10/03 06:33:22;;;;;;;32.23;29.73;;;13.70;99.90;;;;;;5029941;28;20818;-77
2022/10/03 06:36:19;;;;;;;33.53;30.90;;;13.80;99.90;;;;;;5031586;28;20833;-77
2022/10/03 06:39:23;;;;;;;29.57;27.40;;;13.70;99.90;;;;;;5031531;28;20449;-77
2022/10/03 06:42:28;;;;;;;32.10;29.40;;;13.80;99.90;;;;;;5032101;28;20480;-78
2022/10/03 06:45:25;;;;;;;31.17;28.67;;;13.90;99.90;;;;;;5031800;28;20453;-78
2022/10/03 06:48:12;;;;;;;29.50;27.23;;;14.10;99.90;;;;;;5002476;28;20464;-76
2022/10/03 06:50:53;;;;;;;28.07;25.97;;;14.30;99.90;;;;;;5031824;28;20453;-77
2022/10/03 06:53:47;;;;;;;30.70;27.90;;;14.30;99.90;;;;;;5031325;28;20441;-77
2022/10/03 06:56:59;;;;;;;30.70;27.90;;;14.10;99.90;;;;;;5031454;28;20510;-76
2022/10/03 06:59:56;;;;;;;28.23;25.93;;;14.10;99.90;;;;;;5024632;28;20465;-76
2022/10/03 07:02:49;;;;;;;29.20;26.50;;;14.10;99.90;;;;;;5018502;28;21187;-77
2022/10/03 07:06:07;;;;;;;29.30;27.13;;;14.10;99.90;;;;;;5031302;28;20460;-78
2022/10/03 07:09:31;;;;;;;28.93;26.80;;;14.10;99.90;;;;;;4951543;28;20464;-76
2022/10/03 07:12:26;;;;;;;26.50;24.37;;;14.20;99.90;;;;;;4950529;29;20452;-78
2022/10/03 07:15:18;;;;;;;28.80;26.40;;;14.30;99.90;;;;;;4984858;28;20860;-78
2022/10/03 07:18:15;;;;;;;29.37;26.97;;;14.40;99.90;;;;;;5011242;28;20465;-78
2022/10/03 07:21:04;;;;;;;27.63;25.40;;;14.40;99.90;;;;;;4998353;28;20955;-81
2022/10/03 07:23:56;;;;;;;27.93;25.73;;;14.60;99.90;;;;;;5011350;28;20490;-80
2022/10/03 07:26:46;;;;;;;27.10;25.00;;;14.60;99.90;;;;;;5009905;28;20457;-81
2022/10/03 07:29:22;;;;;;;27.43;25.30;;;14.60;99.90;;;;;;5028767;28;20855;-82
2022/10/03 07:32:06;;;;;;;27.13;24.90;;;14.60;99.90;;;;;;5011247;28;20923;-80
2022/10/03 07:35:07;;;;;;;27.30;25.00;;;14.80;99.90;;;;;;5018391;28;20460;-80
2022/10/03 07:41:28;;;;;;;26.17;23.70;;;15.00;99.90;;;;;;5030078;28;20969;-80
2022/10/03 07:44:23;;;;;;;27.23;24.87;;;15.10;99.90;;;;;;5028653;28;20489;-79
2022/10/03 07:47:27;;;;;;;24.63;22.67;;;14.90;99.90;;;;;;4997802;28;20453;-81
2022/10/03 07:50:17;;;;;;;24.60;22.80;;;14.80;99.90;;;;;;5029896;28;20460;-80
2022/10/03 07:53:01;;;;;;;23.43;21.63;;;15.10;99.90;;;;;;5029448;28;20624;-80
2022/10/03 07:55:40;;;;;;;23.90;21.83;;;15.20;99.90;;;;;;5029656;28;20453;-80
2022/10/03 07:58:25;;;;;;;22.73;20.93;;;15.30;99.90;;;;;;5029898;28;20452;-79
2022/10/03 08:01:22;;;;;;;22.23;20.60;;;15.10;99.90;;;;;;5028935;28;20494;-78
2022/10/03 08:04:09;;;;;;;23.37;21.30;;;15.10;99.90;;;;;;5028449;28;20489;-78
2022/10/03 08:06:42;;;;;;;22.50;20.73;;;15.10;99.90;;;;;;5028723;28;20449;-76
2022/10/03 08:09:43;;;;;;;23.97;22.00;;;15.00;99.90;;;;;;5028559;28;20475;-75
2022/10/03 16:50:45;;;;;;;14.03;13.03;;;14.20;99.90;;;;;;5127568;27;20608;-72
2022/10/03 16:53:12;;;;;;;14.87;13.87;;;14.10;99.90;;;;;;5125406;27;20535;-73
2022/10/03 16:55:46;;;;;;;13.40;12.80;;;14.20;99.90;;;;;;5127527;28;20938;-72
2022/10/03 16:58:18;;;;;;;14.80;13.70;;;14.20;99.90;;;;;;5127118;27;20436;-72
2022/10/03 17:00:58;;;;;;;14.03;13.20;;;14.30;99.90;;;;;;5126546;27;20464;-73
2022/10/03 17:03:28;;;;;;;13.27;12.67;;;14.30;99.90;;;;;;5126913;27;20459;-73
2022/10/03 17:05:59;;;;;;;13.97;13.07;;;14.20;99.90;;;;;;5127056;27;20475;-72
2022/10/03 17:08:31;;;;;;;14.27;13.47;;;14.10;99.90;;;;;;5126652;27;20488;-73
2022/10/03 17:11:01;;;;;;;15.17;14.07;;;14.10;99.90;;;;;;5126513;27;20956;-72
2022/10/03 17:13:33;;;;;;;14.30;13.67;;;14.00;99.90;;;;;;5126630;27;20449;-72
2022/10/03 17:16:03;;;;;;;16.27;14.90;;;14.00;99.90;;;;;;5126351;27;20708;-73
2022/10/03 17:18:38;;;;;;;14.80;13.70;;;13.80;99.90;;;;;;5126257;27;20461;-71
2022/10/03 17:21:15;;;;;;;14.20;13.20;;;13.80;99.90;;;;;;5126533;27;20448;-73
2022/10/03 17:23:48;;;;;;;13.33;12.50;;;13.70;99.90;;;;;;5126284;27;20452;-74
2022/10/03 17:26:24;;;;;;;14.87;13.87;;;13.50;99.90;;;;;;5126160;27;20456;-72
2022/10/03 17:28:56;;;;;;;15.40;14.37;;;13.40;99.90;;;;;;5126652;27;20449;-73
2022/10/03 17:31:29;;;;;;;16.17;14.80;;;13.30;99.90;;;;;;5126512;27;20452;-72
2022/10/03 17:34:09;;;;;;;16.77;15.77;;;13.30;99.90;;;;;;5126171;27;20461;-73
2022/10/03 17:37:04;;;;;;;16.93;15.77;;;13.20;99.90;;;;;;5125678;27;20444;-72
2022/10/03 17:39:54;;;;;;;15.43;14.03;;;13.00;99.90;;;;;;5108523;27;20472;-72
2022/10/03 17:42:32;;;;;;;16.00;15.03;;;12.90;99.90;;;;;;5126164;27;20445;-72
2022/10/03 17:45:11;;;;;;;16.83;15.33;;;12.80;99.90;;;;;;5125727;27;20491;-72
2022/10/03 17:47:49;;;;;;;16.43;14.97;;;12.60;99.90;;;;;;5126050;27;20484;-73
2022/10/03 17:50:20;;;;;;;16.23;15.20;;;12.40;99.90;;;;;;5125342;27;20877;-73
2022/10/03 17:52:51;;;;;;;16.80;15.50;;;12.40;99.90;;;;;;5125912;27;20962;-72
2022/10/03 17:55:23;;;;;;;18.10;16.60;;;12.30;99.90;;;;;;5125407;27;20480;-72
2022/10/03 17:57:53;;;;;;;18.20;17.10;;;12.30;99.90;;;;;;5125525;27;20452;-72
2022/10/03 18:00:21;;;;;;;19.10;17.40;;;12.20;99.90;;;;;;5120862;27;20538;-72
2022/10/03 18:02:58;;;;;;;18.73;17.10;;;12.20;99.90;;;;;;5111850;28;20444;-73
2022/10/03 18:05:27;;;;;;;19.63;18.10;;;12.10;99.90;;;;;;5112049;28;20444;-72
2022/10/03 18:08:01;;;;;;;18.50;17.20;;;12.00;99.90;;;;;;5111762;28;20445;-72
2022/10/03 18:10:32;;;;;;;18.57;17.07;;;12.00;99.90;;;;;;5111888;28;20445;-74
2022/10/03 18:13:04;;;;;;;20.67;19.00;;;11.90;99.90;;;;;;5111508;28;20642;-73
2022/10/03 18:15:45;;;;;;;20.53;19.00;;;11.80;99.90;;;;;;5111755;28;20731;-73
2022/10/03 18:18:52;;;;;;;21.20;19.27;;;11.70;99.90;;;;;;5111529;28;20445;-73
2022/10/03 18:21:34;;;;;;;18.97;17.20;;;11.50;99.90;;;;;;5099778;27;20441;-72
2022/10/03 18:24:23;;;;;;;19.63;18.40;;;11.40;99.90;;;;;;5111259;28;21066;-71
2022/10/03 18:27:03;;;;;;;19.03;17.60;;;11.30;99.90;;;;;;5111548;28;20441;-74
2022/10/03 18:29:35;;;;;;;17.97;16.73;;;11.40;99.90;;;;;;5111395;28;20472;-71
2022/10/03 18:32:14;;;;;;;19.73;18.53;;;11.20;99.90;;;;;;5111062;28;20449;-73
2022/10/03 18:34:46;;;;;;;20.17;18.73;;;11.20;99.90;;;;;;5111127;28;20469;-71
2022/10/03 18:37:33;;;;;;;19.73;17.87;;;11.20;99.90;;;;;;5111512;28;20482;-71
2022/10/03 18:40:05;;;;;;;18.60;17.50;;;11.20;99.90;;;;;;5111356;28;20484;-71
2022/10/03 18:42:34;;;;;;;19.40;18.03;;;11.20;99.90;;;;;;5111801;28;20461;-72
2022/10/03 18:45:01;;;;;;;17.47;16.37;;;11.10;99.90;;;;;;5111746;28;20453;-72
2022/10/03 18:47:35;;;;;;;19.17;17.63;;;11.00;99.90;;;;;;5111733;28;20453;-73
2022/10/03 18:50:09;;;;;;;20.23;18.53;;;10.90;99.90;;;;;;5111531;28;20469;-73
2022/10/03 18:52:43;;;;;;;18.83;17.73;;;10.90;99.90;;;;;;5112005;28;20457;-72
2022/10/03 18:55:18;;;;;;;18.70;17.50;;;10.70;99.90;;;;;;5111676;28;20445;-73
2022/10/03 18:57:53;;;;;;;20.17;19.07;;;10.70;99.90;;;;;;5111562;28;20820;-73
2022/10/03 19:00:25;;;;;;;20.77;19.37;;;10.60;99.90;;;;;;5110945;28;20476;-74
2022/10/03 19:02:55;;;;;;;18.83;17.77;;;10.60;99.90;;;;;;5111804;28;20460;-72
2022/10/03 19:05:24;;;;;;;20.93;19.27;;;10.60;99.90;;;;;;5111600;28;20449;-72
2022/10/03 19:08:00;;;;;;;19.93;18.60;;;10.40;99.90;;;;;;5111002;28;20437;-73
2022/10/03 19:10:40;;;;;;;22.53;20.83;;;10.40;99.90;;;;;;5111529;28;20501;-73
2022/10/03 19:13:18;;;;;;;20.30;18.97;;;10.50;99.90;;;;;;5109931;28;20453;-71
2022/10/03 19:16:13;;;;;;;21.07;19.60;;;10.40;99.90;;;;;;5111388;28;20445;-73
2022/10/03 19:18:43;;;;;;;19.50;17.83;;;10.50;99.90;;;;;;5111341;28;20480;-72
2022/10/03 19:21:17;;;;;;;21.33;19.67;;;10.50;99.90;;;;;;5110974;28;20481;-73
2022/10/03 19:23:48;;;;;;;20.80;19.00;;;10.50;99.90;;;;;;5111090;28;20549;-72
2022/10/03 19:26:24;;;;;;;21.20;19.50;;;10.50;99.90;;;;;;5110679;28;20559;-72
2022/10/03 19:28:55;;;;;;;19.80;18.30;;;10.50;99.90;;;;;;5111358;28;20457;-73
2022/10/03 19:31:26;;;;;;;21.50;19.67;;;10.50;99.90;;;;;;5111147;28;20540;-73
2022/10/03 19:33:57;;;;;;;18.97;17.80;;;10.50;99.90;;;;;;5111167;28;20480;-72
2022/10/03 19:36:29;;;;;;;20.23;18.93;;;10.50;99.90;;;;;;5110711;28;20460;-72
2022/10/03 19:38:58;;;;;;;21.20;19.70;;;10.50;99.90;;;;;;5110855;28;20442;-70
2022/10/03 19:41:31;;;;;;;20.80;19.00;;;10.50;99.90;;;;;;5110687;28;20454;-72
2022/10/03 19:44:03;;;;;;;20.87;19.47;;;10.50;99.90;;;;;;5109934;28;20445;-72
2022/10/03 19:46:52;;;;;;;22.10;19.80;;;10.40;99.90;;;;;;5110297;27;20815;-75
2022/10/03 19:49:29;;;;;;;20.50;19.10;;;10.30;99.90;;;;;;5110085;28;20516;-72
2022/10/03 19:52:11;;;;;;;21.00;19.60;;;10.30;99.90;;;;;;5110667;28;20498;-73
2022/10/03 19:54:46;;;;;;;22.90;21.23;;;10.30;99.90;;;;;;5110436;28;20498;-73
2022/10/03 19:57:19;;;;;;;23.40;21.30;;;10.30;99.90;;;;;;5110359;28;20444;-72
2022/10/03 19:59:49;;;;;;;21.93;19.77;;;10.30;99.90;;;;;;5110379;28;20564;-73
2022/10/03 20:02:22;;;;;;;20.10;18.70;;;10.30;99.90;;;;;;5110178;28;20445;-73
2022/10/03 20:04:50;;;;;;;21.93;19.77;;;10.20;99.90;;;;;;5110270;28;20452;-73
2022/10/03 20:07:19;;;;;;;21.40;19.87;;;10.20;99.90;;;;;;5110162;28;20445;-74
2022/10/03 20:09:57;;;;;;;21.67;19.90;;;10.20;99.90;;;;;;5110237;28;20441;-73
2022/10/03 20:12:28;;;;;;;21.73;20.20;;;10.20;99.90;;;;;;5110606;28;20506;-73
2022/10/03 20:15:01;;;;;;;22.50;20.80;;;10.20;99.90;;;;;;5110372;28;20802;-73
2022/10/03 20:17:28;;;;;;;20.67;19.00;;;10.20;99.90;;;;;;5105544;28;20449;-73
2022/10/03 20:20:01;;;;;;;21.27;19.93;;;10.20;99.90;;;;;;5104694;28;20989;-72
2022/10/03 20:22:30;;;;;;;21.27;19.77;;;10.10;99.90;;;;;;5109493;28;20514;-73
2022/10/03 20:24:59;;;;;;;21.47;19.93;;;10.10;99.90;;;;;;5106111;28;20453;-73
2022/10/03 20:27:35;;;;;;;21.67;20.20;;;10.10;99.90;;;;;;5107362;28;20930;-73
2022/10/03 20:30:08;;;;;;;21.37;19.77;;;10.10;99.90;;;;;;5108655;28;20453;-74
2022/10/03 20:32:38;;;;;;;23.43;20.17;;;10.00;99.90;;;;;;5107767;28;20460;-72
2022/10/03 20:35:05;;;;;;;22.20;20.53;;;10.00;99.90;;;;;;5109869;28;20990;-72
2022/10/03 20:37:46;;;;;;;20.90;19.33;;;10.00;99.90;;;;;;5109732;28;20445;-73
2022/10/03 20:40:33;;;;;;;23.57;21.77;;;10.00;99.90;;;;;;5107042;28;20501;-72
2022/10/03 20:43:36;;;;;;;22.67;21.10;;;10.10;99.90;;;;;;5104447;28;20449;-73
2022/10/03 20:46:14;;;;;;;24.30;22.43;;;9.90;99.90;;;;;;5080871;28;20830;-72
2022/10/03 20:48:51;;;;;;;23.70;21.73;;;9.90;99.90;;;;;;5103408;28;20477;-73
2022/10/03 20:51:22;;;;;;;23.70;22.00;;;9.80;99.90;;;;;;5105633;28;20934;-72
2022/10/03 20:53:52;;;;;;;23.67;21.67;;;9.80;99.90;;;;;;5107113;28;20442;-73
2022/10/03 20:56:26;;;;;;;23.20;21.47;;;9.80;99.90;;;;;;5108697;28;20445;-73
2022/10/03 20:58:59;;;;;;;24.43;22.63;;;9.70;99.90;;;;;;5106752;28;20443;-73
2022/10/03 21:01:27;;;;;;;24.70;22.70;;;9.80;99.90;;;;;;5107157;28;20539;-72
2022/10/03 21:04:03;;;;;;;24.20;22.50;;;9.60;99.90;;;;;;5108522;28;20437;-73
2022/10/03 21:06:35;;;;;;;24.53;22.77;;;9.60;99.90;;;;;;5107844;28;20492;-73
2022/10/03 21:09:05;;;;;;;25.50;23.37;;;9.70;99.90;;;;;;5109427;28;20536;-72
2022/10/03 21:12:09;;;;;;;29.10;26.60;;;9.70;99.90;;;;;;5109426;28;20461;-71
2022/10/03 21:14:41;;;;;;;25.23;23.20;;;9.70;99.90;;;;;;5110005;28;20452;-72
2022/10/03 21:17:14;;;;;;;25.67;23.77;;;9.60;99.90;;;;;;5109375;28;20800;-72
2022/10/03 21:19:47;;;;;;;26.27;24.20;;;9.60;99.90;;;;;;5109997;28;20815;-71
2022/10/03 21:22:18;;;;;;;24.23;22.57;;;9.60;99.90;;;;;;5109790;28;20970;-71
2022/10/03 21:24:52;;;;;;;26.70;24.90;;;9.50;99.90;;;;;;5109572;28;20565;-72
2022/10/03 21:27:21;;;;;;;24.30;22.57;;;9.40;99.90;;;;;;5109807;28;20448;-72
2022/10/03 21:30:02;;;;;;;26.53;24.03;;;9.40;99.90;;;;;;5109733;28;20478;-72
2022/10/03 21:32:45;;;;;;;26.70;24.60;;;9.40;99.90;;;;;;5109719;28;20461;-72
2022/10/03 21:35:22;;;;;;;26.63;24.13;;;9.30;99.90;;;;;;5109898;28;20994;-71
2022/10/03 21:37:56;;;;;;;27.13;24.83;;;9.30;99.90;;;;;;5113557;28;20455;-72
2022/10/03 21:40:42;;;;;;;27.03;24.87;;;9.30;99.90;;;;;;5113710;28;21015;-72
2022/10/03 21:43:19;;;;;;;25.90;24.20;;;9.30;99.90;;;;;;5113875;28;20449;-72
2022/10/03 21:45:54;;;;;;;26.10;24.10;;;9.30;99.90;;;;;;5113568;28;20549;-73
2022/10/03 21:48:29;;;;;;;26.80;24.93;;;9.40;99.90;;;;;;5113545;28;20444;-72
2022/10/03 21:50:59;;;;;;;26.37;24.07;;;9.40;99.90;;;;;;5073062;28;20439;-73
2022/10/03 21:53:37;;;;;;;25.13;23.27;;;9.30;99.90;;;;;;5072819;28;20453;-73
2022/10/03 21:56:24;;;;;;;25.43;23.60;;;9.40;99.90;;;;;;5072765;28;20795;-71
2022/10/03 21:59:21;;;;;;;26.50;24.37;;;9.40;99.90;;;;;;5072940;28;20452;-71
2022/10/03 22:01:55;;;;;;;27.37;25.37;;;9.30;99.90;;;;;;5072400;28;20493;-71
2022/10/03 22:04:28;;;;;;;23.70;22.00;;;9.30;99.90;;;;;;5072880;28;20446;-73
2022/10/03 22:07:02;;;;;;;30.33;25.07;;;9.30;99.90;;;;;;5072755;28;20470;-73
2022/10/03 22:09:29;;;;;;;27.43;24.93;;;9.30;99.90;;;;;;5072536;28;20518;-73
2022/10/03 22:11:59;;;;;;;25.73;23.73;;;9.30;99.90;;;;;;5072528;28;20812;-73
2022/10/03 22:14:42;;;;;;;27.77;25.27;;;9.30;99.90;;;;;;5072533;28;20797;-73
2022/10/03 22:17:21;;;;;;;26.57;24.03;;;9.20;99.90;;;;;;5072626;28;20439;-73
2022/10/03 22:19:52;;;;;;;27.33;24.60;;;9.20;99.90;;;;;;5072239;28;20447;-73
2022/10/03 22:22:32;;;;;;;27.13;25.20;;;9.20;99.90;;;;;;5072418;28;20524;-73
2022/10/03 22:25:10;;;;;;;28.27;25.67;;;9.20;99.90;;;;;;5072235;28;20450;-71
2022/10/03 22:27:44;;;;;;;27.30;24.90;;;9.20;99.90;;;;;;5072441;28;20949;-73
2022/10/03 22:30:13;;;;;;;27.60;25.20;;;9.10;99.90;;;;;;5072204;28;20814;-69
2022/10/03 22:32:50;;;;;;;27.87;25.50;;;9.20;99.90;;;;;;5072235;28;20478;-72
2022/10/03 22:35:31;;;;;;;27.93;25.27;;;9.10;99.90;;;;;;5072041;28;20478;-72
2022/10/03 22:37:58;;;;;;;27.60;24.83;;;9.10;99.90;;;;;;5071927;28;20458;-72
2022/10/03 22:40:25;;;;;;;25.90;23.90;;;9.00;99.90;;;;;;5071936;28;21001;-72
2022/10/03 22:42:55;;;;;;;27.20;24.53;;;9.00;99.90;;;;;;5072170;28;20831;-72
2022/10/03 22:45:26;;;;;;;25.90;23.63;;;9.00;99.90;;;;;;5072023;28;20459;-72
2022/10/03 22:47:57;;;;;;;27.83;25.37;;;9.00;99.90;;;;;;5071884;28;20457;-72
2022/10/03 22:50:27;;;;;;;29.07;26.50;;;9.00;99.90;;;;;;5105560;28;20810;-71
2022/10/03 22:52:56;;;;;;;28.53;25.60;;;9.00;99.90;;;;;;5112418;28;20445;-72
2022/10/03 22:55:25;;;;;;;28.37;25.93;;;9.00;99.90;;;;;;5112569;27;20497;-71
2022/10/03 22:57:53;;;;;;;27.73;24.97;;;9.00;99.90;;;;;;5112345;28;20442;-72
2022/10/03 23:00:23;;;;;;;28.93;26.47;;;9.00;99.90;;;;;;5112169;28;20481;-72